createdAt,value
2022-09-04T00:00:19.445Z,101495.09
2022-09-04T00:02:52.124Z,101501.59
2022-09-04T00:05:08.914Z,101496.53
2022-09-04T00:07:34.509Z,101494.09
2022-09-04T00:10:09.790Z,101498.19
2022-09-04T00:12:11.968Z,101498.81
2022-09-04T00:14:21.398Z,101495.22
2022-09-04T00:17:02.136Z,101490.00
2022-09-04T00:19:35.994Z,101496.53
2022-09-04T00:21:48.921Z,101493.56
2022-09-04T00:23:52.268Z,101495.69
2022-09-04T00:26:28.152Z,101492.91
2022-09-04T00:28:45.354Z,101501.59
2022-09-04T00:30:59.004Z,101505.50
2022-09-04T00:33:24.869Z,101503.84
2022-09-04T00:35:37.982Z,101505.31
2022-09-04T00:38:36.706Z,101505.13
2022-09-04T00:40:57.157Z,101502.88
2022-09-04T00:43:29.550Z,101503.00
2022-09-04T00:46:24.629Z,101498.41
2022-09-04T00:49:03.187Z,101498.41
2022-09-04T00:51:44.166Z,101507.88
2022-09-04T00:54:01.181Z,101512.44
2022-09-04T00:56:43.426Z,101511.94
2022-09-04T00:59:03.620Z,101510.47
2022-09-04T01:01:05.858Z,101513.25
2022-09-04T01:03:07.856Z,101505.56
2022-09-04T01:05:56.633Z,101516.03
2022-09-04T01:08:35.188Z,101515.53
2022-09-04T01:11:04.667Z,101519.25
2022-09-04T01:13:34.026Z,101507.78
2022-09-04T01:16:30.757Z,101506.63
2022-09-04T01:18:44.092Z,101514.44
2022-09-04T01:21:06.537Z,101502.00
2022-09-04T01:23:56.499Z,101505.59
2022-09-04T01:26:47.984Z,101503.16
2022-09-04T01:29:10.698Z,101501.03
2022-09-04T01:31:40.975Z,101508.00
2022-09-04T01:34:34.329Z,101492.00
2022-09-04T01:37:04.001Z,101497.69
2022-09-04T01:39:06.039Z,101497.88
2022-09-04T01:41:46.975Z,101497.06
2022-09-04T01:43:49.040Z,101499.50
2022-09-04T01:46:23.625Z,101501.59
2022-09-04T01:48:53.232Z,101497.50
2022-09-04T01:50:55.438Z,101503.88
2022-09-04T01:53:27.550Z,101504.81
2022-09-04T01:55:50.582Z,101501.69
2022-09-04T01:57:58.331Z,101499.34
2022-09-04T02:00:12.037Z,101501.59
2022-09-04T02:02:52.056Z,101500.78
2022-09-04T02:05:08.474Z,101499.16
2022-09-04T02:07:19.688Z,101509.94
2022-09-04T02:09:44.409Z,101500.50
2022-09-04T02:11:51.402Z,101500.31
2022-09-04T02:14:19.996Z,101496.22
2022-09-04T02:16:57.062Z,101498.00
2022-09-04T02:19:01.826Z,101492.47
2022-09-04T02:21:15.559Z,101497.88
2022-09-04T02:23:44.413Z,101492.47
2022-09-04T02:25:57.163Z,101484.44
2022-09-04T02:28:23.285Z,101490.28
2022-09-04T02:30:25.325Z,101492.75
2022-09-04T02:32:41.857Z,101489.69
2022-09-04T02:35:02.220Z,101496.47
2022-09-04T02:37:28.390Z,101495.97
2022-09-04T02:39:41.591Z,101495.13
2022-09-04T02:42:10.854Z,101489.59
2022-09-04T02:44:58.606Z,101489.28
2022-09-04T02:47:57.944Z,101493.53
2022-09-04T02:50:17.228Z,101491.19
2022-09-04T02:53:08.178Z,101497.16
2022-09-04T02:55:30.931Z,101501.88
2022-09-04T02:58:16.836Z,101493.66
2022-09-04T03:00:25.567Z,101504.25
2022-09-04T03:02:43.921Z,101501.47
2022-09-04T03:05:01.249Z,101498.22
2022-09-04T03:07:26.569Z,101494.41
2022-09-04T03:09:55.650Z,101501.59
2022-09-04T03:12:26.414Z,101497.50
2022-09-04T03:14:46.813Z,101502.31
2022-09-04T03:17:16.371Z,101495.34
2022-09-04T03:19:35.556Z,101493.72
2022-09-04T03:21:46.424Z,101494.00
2022-09-04T03:24:11.323Z,101494.97
2022-09-04T03:26:24.948Z,101498.66
2022-09-04T03:29:06.159Z,101503.78
2022-09-04T03:32:18.813Z,101494.06
2022-09-04T03:34:37.547Z,101495.47
2022-09-04T03:36:59.485Z,101502.16
2022-09-04T03:39:27.975Z,101503.28
2022-09-04T03:42:07.652Z,101501.97
2022-09-04T03:44:28.392Z,101500.09
2022-09-04T03:47:14.237Z,101489.66
2022-09-04T03:49:31.206Z,101496.34
2022-09-04T03:51:59.533Z,101495.94
2022-09-04T03:54:29.484Z,101499.91
2022-09-04T03:57:13.489Z,101507.72
2022-09-04T03:59:44.768Z,101510.81
2022-09-04T04:01:55.706Z,101512.44
2022-09-04T04:04:35.315Z,101517.25
2022-09-04T04:07:10.200Z,101517.88
2022-09-04T04:09:18.907Z,101526.19
2022-09-04T04:11:46.323Z,101528.63
2022-09-04T04:14:25.601Z,101531.50
2022-09-04T04:17:02.704Z,101533.56
2022-09-04T04:19:42.352Z,101532.41
2022-09-04T04:22:01.207Z,101535.19
2022-09-04T04:24:19.454Z,101543.00
2022-09-04T04:26:40.577Z,101537.78
2022-09-04T04:29:07.069Z,101541.56
2022-09-04T04:31:23.339Z,101548.84
2022-09-04T04:33:50.815Z,101546.16
2022-09-04T04:36:17.700Z,101548.66
2022-09-04T04:38:39.755Z,101554.91
2022-09-04T04:41:16.635Z,101558.28
2022-09-04T04:43:48.827Z,101563.91
2022-09-04T04:46:15.458Z,101557.56
2022-09-04T04:48:29.295Z,101565.34
2022-09-04T04:51:11.102Z,101561.25
2022-09-04T04:53:37.947Z,101564.53
2022-09-04T04:56:20.236Z,101566.69
2022-09-04T04:58:32.254Z,101570.78
2022-09-04T05:01:16.148Z,101579.09
2022-09-04T05:03:32.413Z,101578.81
2022-09-04T05:06:13.408Z,101582.06
2022-09-04T05:08:58.813Z,101577.88
2022-09-04T05:11:28.476Z,101583.94
2022-09-04T05:13:36.484Z,101587.22
2022-09-04T05:16:05.198Z,101588.53
2022-09-04T05:18:26.161Z,101591.22
2022-09-04T05:20:52.300Z,101592.56
2022-09-04T05:23:03.936Z,101601.28
2022-09-04T05:25:37.324Z,101602.28
2022-09-04T05:28:08.601Z,101596.75
2022-09-04T05:30:47.674Z,101598.41
2022-09-04T05:33:04.563Z,101604.97
2022-09-04T05:35:23.605Z,101600.75
2022-09-04T05:38:02.353Z,101606.38
2022-09-04T05:40:29.169Z,101605.75
2022-09-04T05:42:52.758Z,101611.50
2022-09-04T05:45:11.017Z,101613.16
2022-09-04T05:47:39.917Z,101608.66
2022-09-04T05:50:13.081Z,101610.81
2022-09-04T05:52:45.125Z,101615.72
2022-09-04T05:55:14.791Z,101611.19
2022-09-04T05:57:47.590Z,101620.22
2022-09-04T06:00:04.231Z,101620.59
2022-09-04T06:02:46.891Z,101616.72
2022-09-04T06:05:14.076Z,101619.38
2022-09-04T06:08:00.371Z,101617.63
2022-09-04T06:10:20.303Z,101631.59
2022-09-04T06:12:44.740Z,101629.53
2022-09-04T06:15:16.338Z,101637.72
2022-09-04T06:18:07.745Z,101627.97
2022-09-04T06:20:46.681Z,101633.59
2022-09-04T06:23:06.565Z,101633.97
2022-09-04T06:25:37.773Z,101633.22
2022-09-04T06:28:18.243Z,101625.41
2022-09-04T06:30:20.247Z,101623.00
2022-09-04T06:32:51.827Z,101629.44
2022-09-04T06:35:27.149Z,101633.44
2022-09-04T06:38:01.708Z,101632.34
2022-09-04T06:40:29.728Z,101632.06
2022-09-04T06:42:52.637Z,101635.22
2022-09-04T06:45:09.909Z,101637.88
2022-09-04T06:47:51.560Z,101641.00
2022-09-04T06:50:18.425Z,101631.91
2022-09-04T06:52:33.975Z,101638.81
2022-09-04T06:55:00.007Z,101644.59
2022-09-04T06:57:46.760Z,101642.16
2022-09-04T07:00:06.374Z,101641.91
2022-09-04T07:02:35.611Z,101642.78
2022-09-04T07:05:21.808Z,101642.66
2022-09-04T07:07:52.632Z,101648.41
2022-09-04T07:10:01.377Z,101641.22
2022-09-04T07:12:39.383Z,101647.63
2022-09-04T07:15:22.622Z,101651.03
2022-09-04T07:17:37.001Z,101656.63
2022-09-04T07:20:39.049Z,101660.06
2022-09-04T07:22:54.481Z,101662.22
2022-09-04T07:25:30.228Z,101667.78
2022-09-04T07:28:07.097Z,101672.03
2022-09-04T07:30:11.079Z,101676.63
2022-09-04T07:32:44.543Z,101677.41
2022-09-04T07:35:15.737Z,101672.59
2022-09-04T07:37:50.161Z,101672.22
2022-09-04T07:40:43.273Z,101678.75
2022-09-04T07:43:09.216Z,101687.41
2022-09-04T07:45:34.878Z,101679.66
2022-09-04T07:47:46.258Z,101685.72
2022-09-04T07:50:07.443Z,101686.94
2022-09-04T07:52:25.961Z,101692.69
2022-09-04T07:54:43.930Z,101690.84
2022-09-04T07:57:25.712Z,101684.53
2022-09-04T08:00:02.536Z,101694.16
2022-09-04T08:02:56.691Z,101687.03
2022-09-04T08:05:04.544Z,101696.47
2022-09-04T08:07:14.046Z,101690.81
2022-09-04T08:10:21.158Z,101698.75
2022-09-04T08:12:45.334Z,101696.81
2022-09-04T08:15:10.749Z,101702.47
2022-09-04T08:17:42.060Z,101701.97
2022-09-04T08:20:08.083Z,101703.88
2022-09-04T08:22:13.608Z,101699.00
2022-09-04T08:24:45.194Z,101700.19
2022-09-04T08:27:09.444Z,101706.88
2022-09-04T08:29:28.830Z,101703.59
2022-09-04T08:32:04.551Z,101706.28
2022-09-04T08:34:34.224Z,101705.25
2022-09-04T08:36:51.858Z,101708.06
2022-09-04T08:39:02.385Z,101718.66
2022-09-04T08:41:29.895Z,101717.81
2022-09-04T08:44:04.080Z,101712.56
2022-09-04T08:47:01.958Z,101722.06
2022-09-04T08:49:28.636Z,101723.78
2022-09-04T08:51:59.473Z,101716.81
2022-09-04T08:54:59.211Z,101707.38
2022-09-04T08:57:41.189Z,101724.84
2022-09-04T09:00:08.651Z,101717.59
2022-09-04T09:02:50.087Z,101710.19
2022-09-04T09:05:26.771Z,101713.84
2022-09-04T09:07:42.104Z,101720.63
2022-09-04T09:10:15.244Z,101718.53
2022-09-04T09:12:42.246Z,101721.25
2022-09-04T09:15:14.251Z,101710.88
2022-09-04T09:17:39.234Z,101724.22
2022-09-04T09:20:04.602Z,101713.38
2022-09-04T09:22:20.603Z,101716.84
2022-09-04T09:24:56.319Z,101713.34
2022-09-04T09:27:51.932Z,101723.41
2022-09-04T09:30:12.431Z,101736.56
2022-09-04T09:32:50.448Z,101726.59
2022-09-04T09:35:10.342Z,101721.41
2022-09-04T09:37:54.026Z,101732.34
2022-09-04T09:40:16.211Z,101729.56
2022-09-04T09:42:43.536Z,101731.41
2022-09-04T09:45:50.898Z,101728.44
2022-09-04T09:48:14.347Z,101728.72
2022-09-04T09:50:58.113Z,101732.44
2022-09-04T09:53:05.980Z,101729.22
2022-09-04T09:55:38.821Z,101730.44
2022-09-04T09:57:57.146Z,101736.69
2022-09-04T10:00:09.163Z,101733.00
2022-09-04T10:02:35.189Z,101727.66
2022-09-04T10:04:59.671Z,101728.09
2022-09-04T10:07:41.965Z,101721.66
2022-09-04T10:10:00.435Z,101724.31
2022-09-04T10:12:19.023Z,101738.25
2022-09-04T10:14:55.213Z,101728.56
2022-09-04T10:17:24.013Z,101727.72
2022-09-04T10:19:46.975Z,101714.28
2022-09-04T10:22:18.575Z,101708.53
2022-09-04T10:24:43.115Z,101712.50
2022-09-04T10:27:09.310Z,101715.75
2022-09-04T10:29:29.073Z,101724.59
2022-09-04T10:32:03.634Z,101716.56
2022-09-04T10:34:37.050Z,101711.13
2022-09-04T10:37:01.209Z,101706.22
2022-09-04T10:40:03.718Z,101715.13
2022-09-04T10:42:51.419Z,101711.44
2022-09-04T10:45:17.285Z,101710.47
2022-09-04T10:47:45.544Z,101707.69
2022-09-04T10:50:13.477Z,101705.34
2022-09-04T10:52:36.519Z,101702.03
2022-09-04T10:55:26.726Z,101704.53
2022-09-04T10:57:43.590Z,101700.28
2022-09-04T11:00:08.233Z,101706.97
2022-09-04T11:02:34.182Z,101690.97
2022-09-04T11:04:59.972Z,101692.31
2022-09-04T11:07:25.802Z,101703.59
2022-09-04T11:10:16.055Z,101693.38
2022-09-04T11:12:51.986Z,101694.53
2022-09-04T11:15:18.778Z,101698.47
2022-09-04T11:17:50.825Z,101693.75
2022-09-04T11:20:22.486Z,101700.22
2022-09-04T11:22:57.832Z,101699.50
2022-09-04T11:25:39.741Z,101691.44
2022-09-04T11:28:30.808Z,101694.28
2022-09-04T11:31:22.565Z,101697.84
2022-09-04T11:33:42.628Z,101692.28
2022-09-04T11:36:21.079Z,101693.94
2022-09-04T11:38:43.845Z,101695.28
2022-09-04T11:41:32.226Z,101698.13
2022-09-04T11:44:34.630Z,101690.97
2022-09-04T11:47:04.124Z,101687.97
2022-09-04T11:49:20.935Z,101689.69
2022-09-04T11:52:02.330Z,101688.56
2022-09-04T11:54:38.087Z,101691.69
2022-09-04T11:57:15.165Z,101687.47
2022-09-04T11:59:34.634Z,101684.59
2022-09-04T12:02:20.055Z,101684.59
2022-09-04T12:04:43.602Z,101686.34
2022-09-04T12:07:23.213Z,101684.13
2022-09-04T12:10:02.241Z,101688.28
2022-09-04T12:12:42.276Z,101687.22
2022-09-04T12:15:07.539Z,101680.69
2022-09-04T12:17:56.552Z,101684.66
2022-09-04T12:20:18.046Z,101670.97
2022-09-04T12:22:46.045Z,101672.31
2022-09-04T12:25:05.660Z,101675.16
2022-09-04T12:27:51.309Z,101691.97
2022-09-04T12:30:23.796Z,101680.03
2022-09-04T12:33:11.004Z,101682.53
2022-09-04T12:35:44.007Z,101676.16
2022-09-04T12:38:10.670Z,101681.19
2022-09-04T12:41:06.197Z,101670.81
2022-09-04T12:43:30.893Z,101682.56
2022-09-04T12:46:04.391Z,101682.19
2022-09-04T12:48:41.394Z,101677.19
2022-09-04T12:51:16.753Z,101673.41
2022-09-04T12:53:55.359Z,101684.25
2022-09-04T12:56:12.709Z,101679.31
2022-09-04T12:58:38.854Z,101690.47
2022-09-04T13:01:15.415Z,101684.69
2022-09-04T13:03:49.921Z,101689.31
2022-09-04T13:06:24.052Z,101679.75
2022-09-04T13:09:10.979Z,101683.28
2022-09-04T13:11:34.772Z,101678.94
2022-09-04T13:14:20.361Z,101673.16
2022-09-04T13:16:45.275Z,101673.09
2022-09-04T13:19:20.550Z,101680.28
2022-09-04T13:22:07.664Z,101679.94
2022-09-04T13:24:51.308Z,101688.00
2022-09-04T13:27:15.875Z,101680.81
2022-09-04T13:29:30.115Z,101677.91
2022-09-04T13:32:45.417Z,101679.38
2022-09-04T13:35:17.288Z,101681.84
2022-09-04T13:37:45.301Z,101681.25
2022-09-04T13:40:14.433Z,101681.66
2022-09-04T13:42:57.627Z,101679.31
2022-09-04T13:45:05.779Z,101678.63
2022-09-04T13:47:26.000Z,101686.72
2022-09-04T13:49:48.202Z,101684.03
2022-09-04T13:52:29.514Z,101669.66
2022-09-04T13:54:44.195Z,101672.75
2022-09-04T13:57:16.752Z,101688.63
2022-09-04T13:59:19.044Z,101677.81
2022-09-04T14:01:25.705Z,101675.56
2022-09-04T14:03:41.219Z,101682.34
2022-09-04T14:05:43.261Z,101669.84
2022-09-04T14:07:47.706Z,101669.31
2022-09-04T14:09:49.853Z,101674.41
2022-09-04T14:12:20.038Z,101678.16
2022-09-04T14:15:09.766Z,101679.22
2022-09-04T14:17:12.636Z,101671.63
2022-09-04T14:19:32.091Z,101677.94
2022-09-04T14:22:35.165Z,101682.63
2022-09-04T14:24:56.363Z,101671.25
2022-09-04T14:27:14.253Z,101674.75
2022-09-04T14:29:37.505Z,101672.03
2022-09-04T14:32:12.982Z,101677.41
2022-09-04T14:34:57.257Z,101679.09
2022-09-04T14:37:54.320Z,101681.84
2022-09-04T14:40:03.099Z,101687.16
2022-09-04T14:42:33.620Z,101678.53
2022-09-04T14:45:15.114Z,101682.56
2022-09-04T14:47:54.996Z,101683.53
2022-09-04T14:49:57.055Z,101678.81
2022-09-04T14:52:11.344Z,101688.38
2022-09-04T14:54:31.515Z,101688.06
2022-09-04T14:56:39.390Z,101679.91
2022-09-04T14:59:02.605Z,101690.97
2022-09-04T15:01:11.628Z,101683.94
2022-09-04T15:03:17.297Z,101690.81
2022-09-04T15:05:37.076Z,101689.03
2022-09-04T15:07:41.946Z,101690.00
2022-09-04T15:09:47.006Z,101689.66
2022-09-04T15:12:04.335Z,101694.81
2022-09-04T15:14:34.425Z,101689.63
2022-09-04T15:16:46.781Z,101691.69
2022-09-04T15:19:05.174Z,101699.28
2022-09-04T15:22:00.322Z,101693.25
2022-09-04T15:24:14.125Z,101698.63
2022-09-04T15:26:37.648Z,101701.63
2022-09-04T15:28:52.019Z,101700.84
2022-09-04T15:31:16.741Z,101696.91
2022-09-04T15:33:19.410Z,101681.00
2022-09-04T15:35:32.791Z,101691.31
2022-09-04T15:37:35.615Z,101695.28
2022-09-04T15:40:02.665Z,101701.22
2022-09-04T15:42:05.024Z,101694.16
2022-09-04T15:44:31.589Z,101684.63
2022-09-04T15:46:52.366Z,101694.09
2022-09-04T15:49:27.422Z,101701.97
2022-09-04T15:52:10.528Z,101695.94
2022-09-04T15:54:32.421Z,101696.22
2022-09-04T15:57:00.085Z,101696.34
2022-09-04T15:59:20.423Z,101699.38
2022-09-04T16:02:36.398Z,101696.66
2022-09-04T16:05:03.843Z,101696.53
2022-09-04T16:07:33.010Z,101704.84
2022-09-04T16:09:43.376Z,101704.59
2022-09-04T16:12:24.303Z,101700.53
2022-09-04T16:14:50.070Z,101700.94
2022-09-04T16:17:01.353Z,101702.59
2022-09-04T16:19:27.820Z,101712.94
2022-09-04T16:21:50.563Z,101704.09
2022-09-04T16:23:52.637Z,101704.13
2022-09-04T16:25:58.250Z,101709.88
2022-09-04T16:28:08.204Z,101710.31
2022-09-04T16:30:31.342Z,101717.69
2022-09-04T16:32:35.222Z,101709.28
2022-09-04T16:35:19.184Z,101717.84
2022-09-04T16:37:42.578Z,101713.00
2022-09-04T16:40:05.087Z,101715.03
2022-09-04T16:42:17.854Z,101723.97
2022-09-04T16:44:28.536Z,101719.91
2022-09-04T16:46:32.506Z,101723.16
2022-09-04T16:48:54.207Z,101717.91
2022-09-04T16:51:39.467Z,101725.16
2022-09-04T16:53:49.896Z,101732.03
2022-09-04T16:56:07.422Z,101725.47
2022-09-04T16:58:12.420Z,101725.50
2022-09-04T17:00:14.874Z,101722.59
2022-09-04T17:02:44.797Z,101729.38
2022-09-04T17:05:34.918Z,101737.69
2022-09-04T17:08:01.248Z,101741.75
2022-09-04T17:10:36.741Z,101738.38
2022-09-04T17:12:54.524Z,101750.75
2022-09-04T17:15:28.713Z,101750.69
2022-09-04T17:17:32.284Z,101748.97
2022-09-04T17:19:34.472Z,101748.09
2022-09-04T17:28:54.639Z,101757.53
2022-09-04T17:29:13.985Z,101746.94
2022-09-04T17:29:15.033Z,101756.06
2022-09-04T17:30:40.311Z,101754.66
2022-09-04T17:37:41.999Z,101757.31
2022-09-04T17:40:40.467Z,101762.88
2022-09-04T17:40:48.435Z,101760.09
2022-09-04T17:41:40.063Z,101771.09
2022-09-04T17:43:42.000Z,101771.59
2022-09-04T17:45:59.776Z,101771.84
2022-09-04T17:48:26.572Z,101780.63
2022-09-04T17:50:28.657Z,101779.69
2022-09-04T17:52:33.044Z,101793.16
2022-09-04T17:54:41.451Z,101793.03
2022-09-04T17:56:57.918Z,101797.78
2022-09-04T17:59:09.248Z,101799.66
2022-09-04T18:01:37.209Z,101798.28
2022-09-04T18:04:21.518Z,101808.97
2022-09-04T18:06:25.233Z,101807.09
2022-09-04T18:08:39.620Z,101817.50
2022-09-04T18:10:55.156Z,101826.31
2022-09-04T18:13:38.802Z,101826.34
2022-09-04T18:15:52.322Z,101833.59
2022-09-04T18:18:17.216Z,101831.06
2022-09-04T18:20:41.131Z,101830.25
2022-09-04T18:23:05.466Z,101832.44
2022-09-04T18:25:19.527Z,101843.16
2022-09-04T18:28:11.298Z,101845.31
2022-09-04T18:37:11.513Z,101866.91
2022-09-04T18:37:17.428Z,101854.56
2022-09-04T18:37:21.952Z,101859.47
2022-09-04T18:38:41.626Z,101848.94
2022-09-04T18:45:34.390Z,101849.22
2022-09-04T18:50:25.280Z,101857.16
2022-09-04T18:50:33.211Z,101863.28
2022-09-04T18:50:33.449Z,101849.41
2022-09-04T18:53:43.959Z,101861.16
2022-09-04T18:56:05.654Z,101874.31
2022-09-04T18:58:38.955Z,101871.13
2022-09-04T19:00:53.170Z,101872.94
2022-09-04T19:03:45.315Z,101872.94
2022-09-04T19:05:47.644Z,101879.25
2022-09-04T19:07:56.974Z,101884.06
2022-09-04T19:10:12.254Z,101883.84
2022-09-04T19:12:14.261Z,101896.81
2022-09-04T19:14:19.515Z,101889.69
2022-09-04T19:16:40.465Z,101897.28
2022-09-04T19:18:50.796Z,101892.84
2022-09-04T19:21:14.882Z,101894.00
2022-09-04T19:23:33.525Z,101902.19
2022-09-04T19:25:44.859Z,101893.53
2022-09-04T19:28:13.838Z,101900.78
2022-09-04T19:30:23.924Z,101898.31
2022-09-04T19:32:30.500Z,101903.22
2022-09-04T19:34:51.235Z,101905.94
2022-09-04T19:36:57.282Z,101904.28
2022-09-04T19:45:57.466Z,101909.78
2022-09-04T19:46:01.829Z,101918.50
2022-09-04T19:46:18.773Z,101910.09
2022-09-04T19:48:08.769Z,101914.41
2022-09-04T19:53:22.065Z,101916.25
2022-09-04T19:53:29.614Z,101919.88
2022-09-04T19:55:23.448Z,101922.84
2022-09-04T19:58:01.345Z,101928.56
2022-09-04T20:00:31.229Z,101920.38
2022-09-04T20:02:32.142Z,101931.91
2022-09-04T20:04:42.509Z,101930.44
2022-09-04T20:06:48.341Z,101934.69
2022-09-04T20:09:33.139Z,101939.00
2022-09-04T20:11:46.414Z,101937.72
2022-09-04T20:13:54.010Z,101934.75
2022-09-04T20:16:20.231Z,101934.13
2022-09-04T20:18:31.061Z,101930.59
2022-09-04T20:21:05.528Z,101937.91
2022-09-04T20:23:34.132Z,101945.31
2022-09-04T20:25:55.913Z,101943.03
2022-09-04T20:28:13.121Z,101942.06
2022-09-04T20:30:25.035Z,101948.66
2022-09-04T20:32:33.548Z,101947.38
2022-09-04T20:34:48.506Z,101946.41
2022-09-04T20:37:29.514Z,101946.97
2022-09-04T20:39:41.810Z,101958.34
2022-09-04T20:42:08.776Z,101958.69
2022-09-04T20:46:44.192Z,101962.19
2022-09-04T20:52:44.382Z,101963.84
2022-09-04T20:52:49.130Z,101964.47
2022-09-04T20:52:49.295Z,101959.75
2022-09-04T20:55:37.739Z,101973.16
2022-09-04T21:02:07.929Z,101972.03
2022-09-04T21:03:07.980Z,101973.44
2022-09-04T21:04:14.526Z,101982.84
2022-09-04T21:06:31.908Z,101977.75
2022-09-04T21:09:13.452Z,101982.22
2022-09-04T21:11:41.187Z,101979.41
2022-09-04T21:13:50.871Z,101987.47
2022-09-04T21:16:11.617Z,101986.97
2022-09-04T21:18:34.508Z,101988.13
2022-09-04T21:21:09.715Z,101982.59
2022-09-04T21:24:09.078Z,101997.53
2022-09-04T21:26:30.080Z,101988.84
2022-09-04T21:28:47.618Z,101997.72
2022-09-04T21:31:28.424Z,102000.34
2022-09-04T21:33:47.144Z,102007.41
2022-09-04T21:36:25.276Z,102007.72
2022-09-04T21:38:48.701Z,102008.22
2022-09-04T21:41:39.715Z,101997.38
2022-09-04T21:44:02.713Z,101998.19
2022-09-04T21:46:13.094Z,102000.81
2022-09-04T21:48:34.259Z,102001.00
2022-09-04T21:51:28.247Z,102003.09
2022-09-04T21:53:53.130Z,101996.69
2022-09-04T22:02:26.549Z,102009.31
2022-09-04T22:02:38.450Z,102003.88
2022-09-04T22:02:46.275Z,102010.63
2022-09-04T22:05:07.138Z,102006.84
2022-09-04T22:11:41.908Z,102004.03
2022-09-04T22:13:33.497Z,102009.25
2022-09-04T22:13:47.858Z,102018.28
2022-09-04T22:16:16.057Z,102013.19
2022-09-04T22:18:29.741Z,102013.19
2022-09-04T22:21:04.423Z,102002.03
2022-09-04T22:23:49.806Z,102009.38
2022-09-04T22:26:23.812Z,102010.84
2022-09-04T22:28:52.331Z,102013.97
2022-09-04T22:31:29.372Z,102022.81
2022-09-04T22:34:16.197Z,102016.41
2022-09-04T22:37:11.343Z,102019.66
2022-09-04T22:39:31.353Z,102017.16
2022-09-04T22:42:17.764Z,102022.44
2022-09-04T22:44:31.286Z,102027.34
2022-09-04T22:46:48.833Z,102031.88
2022-09-04T22:49:21.112Z,102033.34
2022-09-04T22:52:02.394Z,102028.91
2022-09-04T22:54:18.052Z,102027.25
2022-09-04T22:57:06.228Z,102029.53
2022-09-04T22:59:38.661Z,102035.94
2022-09-04T23:02:13.940Z,102039.66
2022-09-04T23:04:22.513Z,102041.13
2022-09-04T23:10:35.424Z,102038.16
2022-09-04T23:13:47.863Z,102036.53
2022-09-04T23:13:53.898Z,102040.72
2022-09-04T23:15:35.957Z,102039.06
2022-09-04T23:20:39.978Z,102040.22
2022-09-04T23:26:34.274Z,102040.03
2022-09-04T23:26:44.141Z,102040.97
2022-09-04T23:27:28.136Z,102044.03
2022-09-04T23:29:49.669Z,102044.53
2022-09-04T23:32:16.711Z,102041.75
2022-09-04T23:34:50.757Z,102048.25
2022-09-04T23:37:25.901Z,102042.97
2022-09-04T23:40:31.266Z,102037.69
2022-09-04T23:42:43.764Z,102042.13
2022-09-04T23:45:32.198Z,102050.47
2022-09-04T23:48:20.084Z,102057.19
2022-09-04T23:50:34.378Z,102053.91
2022-09-04T23:53:42.848Z,102051.03
2022-09-04T23:56:04.479Z,102050.38
2022-09-04T23:59:00.210Z,102053.38
